createdAt,value
2022-12-16T00:03:55.158Z,140.65
2022-12-16T00:06:25.104Z,144.93
2022-12-16T00:08:52.433Z,139.88
2022-12-16T00:11:20.352Z,149.93
2022-12-16T00:13:48.118Z,171.90
2022-12-16T00:16:17.307Z,172.52
2022-12-16T00:18:45.214Z,164.23
2022-12-16T00:21:12.690Z,169.35
2022-12-16T00:23:41.508Z,163.25
2022-12-16T00:26:09.497Z,158.55
2022-12-16T00:28:37.288Z,158.52
2022-12-16T00:31:04.615Z,164.65
2022-12-16T00:33:32.359Z,166.25
2022-12-16T00:35:59.372Z,158.93
2022-12-16T00:38:27.237Z,165.18
2022-12-16T00:40:54.536Z,159.10
2022-12-16T00:43:22.240Z,153.57
2022-12-16T00:45:49.763Z,166.20
2022-12-16T00:48:19.141Z,162.15
2022-12-16T00:50:55.084Z,157.35
2022-12-16T00:53:23.659Z,161.35
2022-12-16T00:55:51.505Z,154.57
2022-12-16T00:58:18.947Z,159.05
2022-12-16T01:00:45.605Z,148.75
2022-12-16T01:03:18.007Z,156.75
2022-12-16T01:05:48.676Z,163.15
2022-12-16T01:08:15.729Z,145.55
2022-12-16T01:10:42.478Z,148.15
2022-12-16T01:13:09.521Z,159.68
2022-12-16T01:15:37.901Z,154.55
2022-12-16T01:18:04.926Z,154.00
2022-12-16T01:20:33.464Z,161.00
2022-12-16T01:23:00.316Z,144.70
2022-12-16T01:25:27.950Z,140.38
2022-12-16T01:27:54.602Z,150.43
2022-12-16T01:30:23.307Z,154.63
2022-12-16T01:32:50.248Z,147.25
2022-12-16T01:35:50.923Z,146.40
2022-12-16T01:38:05.142Z,140.27
2022-12-16T01:40:31.942Z,154.75
2022-12-16T01:42:58.881Z,141.75
2022-12-16T01:45:30.756Z,147.75
2022-12-16T01:48:02.748Z,140.10
2022-12-16T01:50:31.532Z,144.02
2022-12-16T01:53:01.083Z,147.43
2022-12-16T01:55:33.377Z,134.27
2022-12-16T01:58:06.984Z,148.35
2022-12-16T02:00:34.886Z,138.32
2022-12-16T02:03:02.525Z,149.05
2022-12-16T02:05:30.162Z,166.25
2022-12-16T02:08:04.611Z,143.63
2022-12-16T02:10:44.054Z,145.07
2022-12-16T02:13:43.786Z,125.28
2022-12-16T02:16:22.856Z,139.55
2022-12-16T02:19:04.938Z,128.50
2022-12-16T02:21:43.590Z,144.87
2022-12-16T02:24:48.462Z,125.55
2022-12-16T02:27:21.131Z,132.90
2022-12-16T02:30:19.731Z,138.15
2022-12-16T02:33:06.795Z,129.93
2022-12-16T02:35:59.111Z,131.32
2022-12-16T02:38:56.027Z,138.95
2022-12-16T02:41:37.487Z,135.82
2022-12-16T02:44:10.584Z,146.00
2022-12-16T02:46:52.803Z,134.88
2022-12-16T02:49:22.857Z,153.75
2022-12-16T02:51:49.985Z,141.00
2022-12-16T02:54:18.122Z,131.98
2022-12-16T02:56:52.090Z,144.63
2022-12-16T02:59:35.941Z,156.32
2022-12-16T03:02:10.446Z,145.48
2022-12-16T03:04:48.939Z,155.65
2022-12-16T03:07:18.440Z,135.68
2022-12-16T03:09:47.775Z,147.23
2022-12-16T03:12:17.922Z,146.85
2022-12-16T03:14:48.912Z,140.02
2022-12-16T03:17:18.497Z,154.52
2022-12-16T03:19:53.519Z,150.52
2022-12-16T03:22:27.654Z,141.57
2022-12-16T03:24:55.421Z,141.98
2022-12-16T03:27:35.856Z,141.98
2022-12-16T03:30:06.976Z,145.18
2022-12-16T03:32:48.397Z,126.53
2022-12-16T03:35:26.966Z,141.02
2022-12-16T03:37:57.633Z,152.75
2022-12-16T03:40:26.881Z,144.32
2022-12-16T03:42:55.291Z,156.93
2022-12-16T03:45:51.639Z,145.50
2022-12-16T03:48:23.470Z,153.15
2022-12-16T03:50:50.105Z,148.90
2022-12-16T03:53:17.646Z,135.88
2022-12-16T03:55:44.602Z,151.27
2022-12-16T03:58:11.471Z,144.73
2022-12-16T04:00:38.734Z,157.30
2022-12-16T04:03:05.583Z,136.18
2022-12-16T04:05:33.110Z,146.43
2022-12-16T04:08:02.298Z,139.82
2022-12-16T04:10:49.092Z,141.82
2022-12-16T04:13:34.971Z,136.60
2022-12-16T04:16:20.592Z,136.63
2022-12-16T04:19:07.081Z,143.68
2022-12-16T04:21:52.426Z,132.75
2022-12-16T04:24:21.042Z,140.02
2022-12-16T04:27:11.802Z,137.93
2022-12-16T04:30:00.814Z,134.48
2022-12-16T04:32:27.699Z,134.23
2022-12-16T04:34:54.914Z,140.10
2022-12-16T04:37:40.119Z,139.88
2022-12-16T04:40:26.797Z,136.70
2022-12-16T04:43:12.231Z,137.05
2022-12-16T04:45:58.536Z,141.52
2022-12-16T04:48:47.172Z,140.88
2022-12-16T04:51:32.483Z,134.07
2022-12-16T04:54:18.345Z,134.27
2022-12-16T04:57:03.640Z,144.32
2022-12-16T04:59:49.428Z,132.65
2022-12-16T05:02:51.672Z,143.60
2022-12-16T05:05:37.325Z,131.30
2022-12-16T05:08:22.673Z,138.35
2022-12-16T05:11:08.435Z,124.32
2022-12-16T05:14:04.772Z,130.88
2022-12-16T05:16:50.201Z,146.13
2022-12-16T05:19:36.009Z,126.57
2022-12-16T05:22:21.360Z,125.20
2022-12-16T05:25:07.065Z,136.90
2022-12-16T05:27:52.469Z,133.43
2022-12-16T05:30:38.725Z,122.57
2022-12-16T05:33:23.921Z,132.70
2022-12-16T05:36:09.903Z,121.15
2022-12-16T05:38:55.483Z,130.27
2022-12-16T05:41:41.011Z,131.18
2022-12-16T05:44:26.862Z,126.22
2022-12-16T05:47:11.973Z,128.25
2022-12-16T05:50:02.333Z,134.95
2022-12-16T05:52:47.903Z,139.88
2022-12-16T05:55:34.296Z,120.10
2022-12-16T05:58:19.574Z,133.93
2022-12-16T06:01:05.340Z,142.65
2022-12-16T06:03:50.931Z,126.30
2022-12-16T06:06:36.754Z,135.48
2022-12-16T06:09:21.901Z,137.05
2022-12-16T06:12:08.689Z,144.00
2022-12-16T06:14:54.038Z,138.98
2022-12-16T06:17:40.375Z,140.00
2022-12-16T06:20:26.813Z,126.18
2022-12-16T06:23:13.294Z,145.43
2022-12-16T06:25:59.588Z,142.32
2022-12-16T06:28:46.103Z,155.20
2022-12-16T06:31:32.443Z,155.27
2022-12-16T06:34:17.591Z,139.70
2022-12-16T06:37:03.447Z,156.82
2022-12-16T06:39:52.769Z,138.60
2022-12-16T06:42:38.901Z,141.25
2022-12-16T06:45:26.962Z,147.07
2022-12-16T06:48:15.568Z,134.90
2022-12-16T06:51:01.242Z,156.50
2022-12-16T06:53:46.672Z,139.10
2022-12-16T06:56:32.417Z,131.95
2022-12-16T06:59:17.732Z,148.15
2022-12-16T07:02:04.022Z,138.98
2022-12-16T07:04:49.202Z,143.20
2022-12-16T07:07:34.937Z,126.60
2022-12-16T07:10:25.369Z,138.95
2022-12-16T07:13:10.381Z,149.63
2022-12-16T07:15:56.197Z,129.38
2022-12-16T07:18:41.421Z,141.23
2022-12-16T07:21:27.350Z,152.35
2022-12-16T07:24:12.845Z,135.48
2022-12-16T07:26:58.685Z,136.90
2022-12-16T07:29:44.118Z,144.80
2022-12-16T07:32:29.898Z,144.73
2022-12-16T07:35:15.747Z,132.85
2022-12-16T07:38:01.150Z,140.73
2022-12-16T07:40:46.921Z,137.05
2022-12-16T07:43:32.752Z,129.48
2022-12-16T07:46:18.943Z,133.93
2022-12-16T07:49:23.948Z,131.98
2022-12-16T07:52:09.948Z,147.60
2022-12-16T07:54:55.736Z,145.35
2022-12-16T07:57:40.864Z,127.82
2022-12-16T08:00:26.931Z,131.43
2022-12-16T08:03:13.219Z,144.00
2022-12-16T08:05:59.041Z,145.20
2022-12-16T08:08:44.357Z,130.25
2022-12-16T08:11:30.037Z,135.68
2022-12-16T08:14:15.391Z,132.48
2022-12-16T08:17:01.340Z,135.60
2022-12-16T08:19:46.505Z,146.43
2022-12-16T08:22:32.490Z,148.50
2022-12-16T08:25:18.308Z,133.52
2022-12-16T08:28:03.830Z,134.50
2022-12-16T08:30:49.810Z,130.13
2022-12-16T08:33:35.492Z,125.70
2022-12-16T08:36:21.870Z,136.48
2022-12-16T08:39:07.285Z,131.27
2022-12-16T08:41:53.270Z,132.27
2022-12-16T08:44:39.417Z,134.00
2022-12-16T08:47:25.218Z,132.10
2022-12-16T08:50:10.594Z,133.73
2022-12-16T08:52:56.474Z,127.15
2022-12-16T08:55:42.091Z,138.73
2022-12-16T08:58:27.566Z,124.30
2022-12-16T09:01:13.315Z,125.47
2022-12-16T09:03:58.677Z,117.03
2022-12-16T09:06:44.503Z,124.30
2022-12-16T09:09:29.816Z,240.85
2022-12-16T09:12:15.923Z,174.07
2022-12-16T09:15:01.156Z,131.63
2022-12-16T09:17:46.409Z,131.10
2022-12-16T09:20:32.207Z,125.93
2022-12-16T09:23:21.085Z,137.27
2022-12-16T09:26:07.098Z,131.52
2022-12-16T09:28:52.508Z,140.50
2022-12-16T09:31:39.014Z,122.53
2022-12-16T09:34:24.151Z,121.18
2022-12-16T09:37:10.277Z,122.82
2022-12-16T09:39:55.695Z,130.38
2022-12-16T09:43:03.384Z,126.60
2022-12-16T09:46:12.662Z,124.47
2022-12-16T09:49:29.542Z,131.85
2022-12-16T09:52:18.600Z,137.20
2022-12-16T09:55:05.021Z,122.25
2022-12-16T09:57:54.541Z,124.47
2022-12-16T10:00:47.406Z,116.32
2022-12-16T10:03:45.760Z,123.88
2022-12-16T10:06:50.154Z,121.88
2022-12-16T10:10:08.646Z,121.38
2022-12-16T10:13:09.471Z,133.68
2022-12-16T10:16:09.727Z,120.50
2022-12-16T10:19:19.881Z,119.88
2022-12-16T10:22:18.448Z,118.65
2022-12-16T10:25:10.360Z,118.90
2022-12-16T10:28:07.495Z,119.25
2022-12-16T10:30:56.745Z,135.05
2022-12-16T10:33:47.283Z,141.50
2022-12-16T10:36:40.474Z,149.27
2022-12-16T10:39:42.323Z,127.65
2022-12-16T10:42:47.848Z,128.45
2022-12-16T10:45:42.977Z,113.50
2022-12-16T10:48:30.636Z,127.20
2022-12-16T10:51:18.858Z,123.13
2022-12-16T10:54:09.705Z,121.50
2022-12-16T10:57:12.416Z,124.38
2022-12-16T11:00:00.135Z,131.13
2022-12-16T11:02:47.271Z,126.80
2022-12-16T11:05:48.188Z,132.50
2022-12-16T11:08:55.672Z,134.20
2022-12-16T11:11:46.685Z,137.85
2022-12-16T11:15:05.415Z,127.15
2022-12-16T11:17:48.169Z,139.95
2022-12-16T11:20:33.803Z,129.63
2022-12-16T11:23:43.979Z,119.82
2022-12-16T11:26:34.574Z,128.10
2022-12-16T11:29:23.265Z,130.13
2022-12-16T11:32:14.142Z,121.35
2022-12-16T11:35:02.110Z,127.60
2022-12-16T11:37:49.718Z,138.50
2022-12-16T11:40:37.223Z,132.35
2022-12-16T11:43:24.159Z,121.82
2022-12-16T11:46:10.979Z,137.27
2022-12-16T11:49:19.288Z,121.18
2022-12-16T11:59:05.369Z,113.70
2022-12-16T12:02:14.171Z,123.35
2022-12-16T12:04:59.823Z,138.05
2022-12-16T12:08:15.295Z,123.07
2022-12-16T12:11:37.364Z,135.05
2022-12-16T12:14:43.207Z,131.00
2022-12-16T12:18:18.947Z,133.50
2022-12-16T12:21:16.857Z,130.88
2022-12-16T12:24:07.528Z,133.05
2022-12-16T12:26:57.408Z,136.35
2022-12-16T12:30:02.764Z,157.93
2022-12-16T12:32:54.652Z,159.05
2022-12-16T12:38:57.143Z,149.73
2022-12-16T12:41:44.990Z,180.48
2022-12-16T12:44:49.087Z,170.15
2022-12-16T12:47:35.922Z,167.10
2022-12-16T12:50:50.549Z,158.48
2022-12-16T12:53:48.394Z,169.45
2022-12-16T12:56:53.610Z,165.50
2022-12-16T13:00:17.980Z,187.00
2022-12-16T13:03:17.293Z,175.10
2022-12-16T13:06:03.029Z,161.80
2022-12-16T13:09:05.118Z,164.80
2022-12-16T13:11:50.511Z,142.73
2022-12-16T13:14:51.767Z,160.43
2022-12-16T13:17:39.472Z,153.32
2022-12-16T13:20:54.459Z,160.45
2022-12-16T13:23:50.433Z,158.30
2022-12-16T13:26:38.426Z,152.75
2022-12-16T13:29:40.659Z,138.35
2022-12-16T13:32:25.916Z,147.57
2022-12-16T13:35:27.015Z,138.50
2022-12-16T13:38:17.961Z,150.95
2022-12-16T13:41:15.633Z,151.30
2022-12-16T13:44:08.253Z,146.15
2022-12-16T13:47:10.991Z,113.43
2022-12-16T13:50:06.837Z,163.40
2022-12-16T13:53:18.574Z,152.05
2022-12-16T13:56:10.591Z,140.13
2022-12-16T13:59:22.819Z,140.40
2022-12-16T14:02:20.558Z,147.00
2022-12-16T14:05:12.766Z,154.50
2022-12-16T14:07:59.211Z,148.07
2022-12-16T14:10:52.790Z,160.18
2022-12-16T14:16:54.527Z,187.88
2022-12-16T14:19:44.385Z,192.32
2022-12-16T14:22:32.530Z,172.85
2022-12-16T14:25:35.370Z,173.98
2022-12-16T14:28:41.674Z,178.75
2022-12-16T14:31:50.689Z,173.32
2022-12-16T14:34:41.018Z,161.70
2022-12-16T14:37:38.132Z,156.45
2022-12-16T14:40:38.433Z,153.82
2022-12-16T14:43:39.935Z,161.80
2022-12-16T14:46:45.939Z,185.10
2022-12-16T14:49:39.249Z,162.75
2022-12-16T14:52:55.370Z,157.43
2022-12-16T14:55:52.643Z,177.15
2022-12-16T14:58:40.642Z,238.02
2022-12-16T15:01:44.841Z,185.75
2022-12-16T15:04:49.246Z,194.00
2022-12-16T15:07:34.721Z,189.10
2022-12-16T15:10:21.114Z,163.98
2022-12-16T15:13:07.937Z,177.40
2022-12-16T15:16:21.081Z,173.55
2022-12-16T15:19:16.088Z,178.73
2022-12-16T15:22:02.589Z,199.07
2022-12-16T15:24:54.492Z,190.85
2022-12-16T15:27:39.839Z,190.13
2022-12-16T15:31:02.910Z,175.52
2022-12-16T15:33:54.240Z,204.40
2022-12-16T15:36:52.710Z,198.48
2022-12-16T15:39:59.818Z,197.75
2022-12-16T15:42:51.791Z,227.50
2022-12-16T15:45:50.065Z,209.67
2022-12-16T15:48:45.586Z,210.07
2022-12-16T15:52:00.154Z,204.68
2022-12-16T15:54:45.360Z,181.15
2022-12-16T15:57:50.840Z,198.43
2022-12-16T16:00:49.594Z,200.27
2022-12-16T16:03:39.565Z,203.88
2022-12-16T16:06:36.799Z,169.93
2022-12-16T16:09:38.656Z,214.80
2022-12-16T16:12:24.340Z,216.93
2022-12-16T16:15:09.797Z,213.23
2022-12-16T16:17:54.948Z,194.82
2022-12-16T16:20:40.071Z,198.02
2022-12-16T16:23:26.932Z,191.35
2022-12-16T16:26:12.306Z,202.38
2022-12-16T16:28:59.336Z,196.05
2022-12-16T16:31:44.456Z,218.43
2022-12-16T16:34:30.116Z,199.15
2022-12-16T16:37:17.188Z,176.05
2022-12-16T16:40:03.214Z,190.57
2022-12-16T16:42:49.679Z,203.55
2022-12-16T16:45:34.912Z,183.27
2022-12-16T16:48:34.644Z,192.75
2022-12-16T16:51:41.870Z,204.27
2022-12-16T16:54:26.849Z,211.15
2022-12-16T16:57:12.100Z,198.25
2022-12-16T16:59:57.537Z,188.77
2022-12-16T17:02:44.068Z,197.20
2022-12-16T17:05:30.649Z,191.57
2022-12-16T17:08:16.201Z,180.38
2022-12-16T17:11:02.195Z,187.80
2022-12-16T17:13:47.416Z,189.10
2022-12-16T17:16:36.655Z,189.40
2022-12-16T17:19:21.874Z,199.10
2022-12-16T17:22:07.543Z,189.25
2022-12-16T17:24:54.571Z,250.23
2022-12-16T17:27:43.204Z,239.07
2022-12-16T17:30:44.957Z,240.18
2022-12-16T17:33:34.411Z,226.85
2022-12-16T17:36:20.599Z,220.02
2022-12-16T17:39:06.034Z,242.20
2022-12-16T17:41:53.079Z,243.02
2022-12-16T17:44:38.448Z,209.93
2022-12-16T17:47:24.396Z,219.68
2022-12-16T17:50:10.390Z,216.73
2022-12-16T17:52:55.755Z,245.98
2022-12-16T17:55:41.469Z,245.95
2022-12-16T17:58:27.496Z,203.07
2022-12-16T18:01:20.757Z,223.43
2022-12-16T18:04:07.140Z,218.25
2022-12-16T18:06:53.340Z,215.25
2022-12-16T18:09:38.753Z,209.38
2022-12-16T18:12:24.605Z,225.73
2022-12-16T18:15:09.945Z,204.93
2022-12-16T18:17:55.336Z,206.70
2022-12-16T18:20:41.109Z,212.50
2022-12-16T18:23:26.217Z,215.23
2022-12-16T18:26:20.171Z,220.43
2022-12-16T18:29:05.477Z,221.68
2022-12-16T18:31:51.856Z,229.68
2022-12-16T18:34:37.556Z,222.98
2022-12-16T18:37:23.199Z,225.93
2022-12-16T18:40:08.524Z,212.25
2022-12-16T18:42:54.230Z,221.75
2022-12-16T18:45:39.929Z,212.27
2022-12-16T18:48:24.978Z,235.60
2022-12-16T18:51:18.658Z,224.20
2022-12-16T18:54:04.598Z,211.82
2022-12-16T18:56:50.413Z,226.27
2022-12-16T18:59:35.679Z,211.73
2022-12-16T19:02:21.652Z,220.13
2022-12-16T19:05:06.909Z,222.30
2022-12-16T19:08:03.245Z,217.23
2022-12-16T19:10:49.123Z,206.25
2022-12-16T19:13:34.303Z,188.55
2022-12-16T19:16:21.938Z,193.70
2022-12-16T19:19:19.617Z,199.68
2022-12-16T19:22:06.621Z,213.57
2022-12-16T19:24:52.053Z,202.35
2022-12-16T19:27:37.909Z,222.13
2022-12-16T19:30:23.669Z,223.15
2022-12-16T19:33:09.230Z,207.05
2022-12-16T19:35:55.060Z,198.95
2022-12-16T19:38:42.351Z,185.48
2022-12-16T19:41:36.402Z,185.68
2022-12-16T19:44:22.843Z,168.43
2022-12-16T19:47:09.241Z,180.23
2022-12-16T19:49:54.987Z,317.52
2022-12-16T19:52:42.045Z,208.57
2022-12-16T19:55:27.804Z,231.80
2022-12-16T19:58:13.092Z,198.85
2022-12-16T20:00:58.770Z,190.52
2022-12-16T20:03:44.846Z,183.75
2022-12-16T20:06:31.413Z,172.52
2022-12-16T20:09:17.399Z,169.05
2022-12-16T20:12:02.896Z,173.73
2022-12-16T20:14:48.778Z,180.43
2022-12-16T20:17:33.950Z,171.60
2022-12-16T20:20:19.387Z,177.98
2022-12-16T20:23:04.931Z,180.82
2022-12-16T20:25:50.408Z,202.98
2022-12-16T20:28:35.874Z,181.32
2022-12-16T20:31:21.958Z,160.85
2022-12-16T20:34:14.560Z,170.93
2022-12-16T20:37:00.179Z,173.40
2022-12-16T20:39:52.946Z,169.13
2022-12-16T20:42:46.219Z,174.45
2022-12-16T20:45:32.139Z,260.83
2022-12-16T20:48:17.348Z,223.15
2022-12-16T20:51:02.471Z,205.75
2022-12-16T20:53:47.932Z,194.55
2022-12-16T20:56:33.660Z,177.93
2022-12-16T20:59:19.134Z,195.48
2022-12-16T21:05:09.557Z,208.00
2022-12-16T21:07:55.019Z,207.70
2022-12-16T21:10:42.804Z,203.52
2022-12-16T21:13:30.675Z,194.40
2022-12-16T21:16:18.045Z,205.70
2022-12-16T21:19:03.708Z,215.60
2022-12-16T21:21:49.580Z,186.98
2022-12-16T21:24:35.386Z,196.43
2022-12-16T21:27:20.754Z,192.68
2022-12-16T21:30:06.114Z,197.27
2022-12-16T21:32:51.562Z,201.05
2022-12-16T21:35:39.905Z,206.30
2022-12-16T21:38:43.757Z,182.90
2022-12-16T21:41:29.857Z,207.13
2022-12-16T21:44:15.530Z,203.23
2022-12-16T21:47:00.898Z,197.20
2022-12-16T21:49:46.711Z,199.35
2022-12-16T21:52:31.723Z,179.20
2022-12-16T21:55:17.646Z,202.93
2022-12-16T21:58:03.126Z,218.02
2022-12-16T22:00:50.312Z,204.23
2022-12-16T22:03:38.737Z,193.85
2022-12-16T22:06:25.058Z,207.10
2022-12-16T22:09:10.911Z,197.73
2022-12-16T22:11:56.391Z,222.65
2022-12-16T22:14:42.220Z,263.25
2022-12-16T22:17:27.755Z,262.38
2022-12-16T22:20:13.905Z,248.85
2022-12-16T22:22:59.046Z,208.10
2022-12-16T22:25:45.096Z,217.93
2022-12-16T22:28:30.187Z,223.32
2022-12-16T22:31:16.662Z,206.77
2022-12-16T22:34:02.689Z,209.25
2022-12-16T22:36:48.457Z,207.02
2022-12-16T22:39:33.680Z,195.30
2022-12-16T22:42:19.609Z,208.20
2022-12-16T22:45:05.465Z,189.13
2022-12-16T22:47:51.005Z,208.18
2022-12-16T22:50:37.653Z,210.75
2022-12-16T22:53:23.153Z,210.48
2022-12-16T22:56:13.199Z,212.00
2022-12-16T22:58:59.350Z,207.68
2022-12-16T23:01:45.689Z,201.48
2022-12-16T23:04:31.008Z,204.85
2022-12-16T23:07:16.762Z,210.65
2022-12-16T23:10:02.617Z,202.05
2022-12-16T23:12:47.994Z,206.80
2022-12-16T23:15:33.822Z,195.35
2022-12-16T23:18:19.309Z,196.85
2022-12-16T23:21:09.835Z,195.60
2022-12-16T23:23:56.902Z,195.48
2022-12-16T23:26:43.475Z,207.55
2022-12-16T23:29:30.892Z,208.75
2022-12-16T23:32:16.100Z,211.85
2022-12-16T23:35:01.815Z,204.68
2022-12-16T23:37:46.947Z,204.82
2022-12-16T23:40:32.823Z,207.30
2022-12-16T23:43:18.360Z,206.10
2022-12-16T23:46:04.071Z,202.98
2022-12-16T23:48:49.880Z,209.63
2022-12-16T23:51:35.210Z,215.63
2022-12-16T23:54:21.067Z,200.07
2022-12-16T23:57:06.156Z,200.73
2022-12-16T23:59:51.824Z,210.70
